This is the latest recevied weather packets stored in our database for station/object VK3HAG. If no packets are shown the sender has not sent any weather packets the latest 10 day(s).
| Time | Temp. | Humidity | Pressure | Rain* | Wind** | Luminosity | Snow |
|---|---|---|---|---|---|---|---|
| 1778138104 | 10.56° C | 77% | 1020.3 hPa | 0 mm | - | - | - |
| 1778137205 | 11.11° C | 79% | 1020.2 hPa | 0 mm | - | - | - |
| 1778136305 | 11.67° C | 76% | 1020.3 hPa | 0 mm | - | - | - |
| 1778135404 | 11.67° C | 73% | 1020.2 hPa | 0 mm | - | - | - |
| 1778134505 | 11.67° C | 72% | 1020.4 hPa | 0 mm | - | - | - |
| 1778133604 | 11.67° C | 71% | 1020.4 hPa | 0 mm | - | - | - |
| 1778132704 | 11.67° C | 71% | 1020.2 hPa | 0 mm | - | - | - |
| 1778131804 | 11.67° C | 71% | 1020.3 hPa | 0 mm | - | - | - |
| 1778130904 | 11.67° C | 71% | 1020.1 hPa | 0 mm | - | - | - |
| 1778130005 | 11.67° C | 73% | 1020.2 hPa | 0 mm | - | - | - |
| 1778129105 | 11.67° C | 75% | 1020.3 hPa | 0 mm | - | - | - |
| 1778128204 | 11.67° C | 75% | 1020.3 hPa | 0 mm | - | - | - |
| 1778127305 | 11.67° C | 77% | 1020.3 hPa | 0 mm | - | - | - |
| 1778126405 | 11.11° C | 79% | 1020.2 hPa | 0 mm | - | - | - |
| 1778125504 | 10.56° C | 82% | 1020.4 hPa | 0 mm | - | - | - |
| 1778124604 | 10° C | 83% | 1020.6 hPa | 0 mm | - | - | - |
| 1778123704 | 10.56° C | 79% | 1020.5 hPa | 0 mm | - | - | - |
| 1778122805 | 11.67° C | 81% | 1020.4 hPa | 0 mm | - | - | - |
| 1778121904 | 10° C | 83% | 1020.6 hPa | 0 mm | - | - | - |
| 1778121004 | 10° C | 81% | 1020.8 hPa | 0 mm | - | - | - |
| 1778120105 | 10.56° C | 80% | 1020.6 hPa | 0 mm | - | - | - |
| 1778119204 | 10° C | 83% | 1020.6 hPa | 0 mm | - | - | - |
| 1778118304 | 9.44° C | 88% | 1020.7 hPa | 0 mm | - | - | - |
| 1778117405 | 8.89° C | 90% | 1020.8 hPa | 0 mm | - | - | - |
| 1778116505 | 8.33° C | 90% | 1020.9 hPa | 0 mm | - | - | - |
* Rain latest hour (hover to see other rain measurements)
** Current wind speed in m/s (hover to see current wind gust speed)